createdAt,value
2023-04-18T00:00:21.527Z,99758.97
2023-04-18T00:03:23.986Z,99765.84
2023-04-18T00:06:26.754Z,99759.94
2023-04-18T00:09:28.738Z,99763.41
2023-04-18T00:12:32.011Z,99766.81
2023-04-18T00:15:35.583Z,99766.91
2023-04-18T00:18:37.624Z,99769.66
2023-04-18T00:21:45.046Z,99772.31
2023-04-18T00:24:47.219Z,99768.59
2023-04-18T00:27:49.425Z,99769.97
2023-04-18T00:30:51.780Z,99774.22
2023-04-18T00:33:53.701Z,99769.12
2023-04-18T00:36:55.553Z,99771.13
2023-04-18T00:39:57.881Z,99765.72
2023-04-18T00:43:00.310Z,99770.50
2023-04-18T00:46:02.217Z,99779.28
2023-04-18T00:49:04.181Z,99768.06
2023-04-18T00:52:06.591Z,99769.88
2023-04-18T00:55:09.461Z,99763.94
2023-04-18T00:58:12.179Z,99760.53
2023-04-18T01:01:14.093Z,99758.94
2023-04-18T01:04:16.358Z,99761.81
2023-04-18T01:07:18.477Z,99761.91
2023-04-18T01:10:20.681Z,99762.13
2023-04-18T01:13:22.646Z,99761.28
2023-04-18T01:16:24.702Z,99759.38
2023-04-18T01:19:27.293Z,99757.69
2023-04-18T01:22:31.497Z,99763.06
2023-04-18T01:25:34.368Z,99761.38
2023-04-18T01:28:37.304Z,99756.94
2023-04-18T01:31:41.507Z,99764.00
2023-04-18T01:34:43.732Z,99757.13
2023-04-18T01:37:46.022Z,99749.50
2023-04-18T01:40:48.130Z,99756.28
2023-04-18T01:43:50.220Z,99759.38
2023-04-18T01:46:52.174Z,99756.09
2023-04-18T01:49:54.158Z,99756.38
2023-04-18T01:52:56.145Z,99760.78
2023-04-18T01:55:58.654Z,99752.84
2023-04-18T01:59:00.563Z,99755.50
2023-04-18T02:02:02.800Z,99748.53
2023-04-18T02:05:05.116Z,99755.50
2023-04-18T02:08:07.088Z,99750.41
2023-04-18T02:11:08.996Z,99759.31
2023-04-18T02:14:11.010Z,99760.06
2023-04-18T02:17:12.876Z,99761.75
2023-04-18T02:20:14.806Z,99754.03
2023-04-18T02:23:16.833Z,99759.31
2023-04-18T02:26:18.716Z,99759.44
2023-04-18T02:29:21.163Z,99761.44
2023-04-18T02:32:23.107Z,99762.91
2023-04-18T02:35:26.202Z,99763.13
2023-04-18T02:38:28.477Z,99768.41
2023-04-18T02:41:31.286Z,99765.75
2023-04-18T02:44:33.152Z,99773.88
2023-04-18T02:47:46.939Z,99767.84
2023-04-18T02:50:53.730Z,99768.59
2023-04-18T02:53:56.350Z,99765.63
2023-04-18T02:56:58.286Z,99767.31
2023-04-18T03:00:00.242Z,99771.97
2023-04-18T03:03:02.278Z,99771.78
2023-04-18T03:06:04.469Z,99771.09
2023-04-18T03:09:06.410Z,99774.50
2023-04-18T03:12:08.490Z,99769.53
2023-04-18T03:15:11.481Z,99771.28
2023-04-18T03:18:13.823Z,99774.91
2023-04-18T03:21:16.155Z,99779.66
2023-04-18T03:24:18.400Z,99776.06
2023-04-18T03:27:20.271Z,99784.81
2023-04-18T03:30:22.628Z,99772.25
2023-04-18T03:33:24.746Z,99790.00
2023-04-18T03:36:28.766Z,99784.94
2023-04-18T03:39:31.401Z,99786.06
2023-04-18T03:42:33.329Z,99788.63
2023-04-18T03:45:35.395Z,99784.38
2023-04-18T03:48:37.575Z,99783.53
2023-04-18T03:51:47.397Z,99786.06
2023-04-18T03:54:49.322Z,99789.47
2023-04-18T03:57:51.575Z,99788.63
2023-04-18T04:00:53.693Z,99788.63
2023-04-18T04:03:55.669Z,99786.06
2023-04-18T04:06:58.190Z,99793.72
2023-04-18T04:10:00.759Z,99796.25
2023-04-18T04:13:02.896Z,99800.78
2023-04-18T04:16:05.416Z,99799.62
2023-04-18T04:19:07.347Z,99798.16
2023-04-18T04:22:09.910Z,99798.16
2023-04-18T04:25:13.898Z,99807.00
2023-04-18T04:28:16.086Z,99812.09
2023-04-18T04:31:18.842Z,99807.66
2023-04-18T04:34:21.666Z,99804.09
2023-04-18T04:37:23.881Z,99811.13
2023-04-18T04:40:25.836Z,99810.28
2023-04-18T04:43:28.910Z,99817.19
2023-04-18T04:46:31.198Z,99813.69
2023-04-18T04:49:33.088Z,99815.38
2023-04-18T04:52:35.215Z,99824.16
2023-04-18T04:55:38.641Z,99820.66
2023-04-18T04:58:40.620Z,99834.50
2023-04-18T05:01:45.627Z,99838.75
2023-04-18T05:04:47.882Z,99832.25
2023-04-18T05:07:49.929Z,99831.00
2023-04-18T05:10:51.865Z,99830.88
2023-04-18T05:13:53.866Z,99834.28
2023-04-18T05:16:56.028Z,99840.97
2023-04-18T05:19:58.026Z,99840.09
2023-04-18T05:23:00.098Z,99845.28
2023-04-18T05:26:02.003Z,99844.38
2023-04-18T05:29:03.959Z,99844.38
2023-04-18T05:32:09.040Z,99847.09
2023-04-18T05:35:11.030Z,99846.94
2023-04-18T05:38:13.162Z,99848.81
2023-04-18T05:41:15.179Z,99861.94
2023-04-18T05:44:18.302Z,99855.03
2023-04-18T05:47:20.571Z,99862.03
2023-04-18T05:50:23.291Z,99863.63
2023-04-18T05:53:25.369Z,99861.94
2023-04-18T05:56:27.445Z,99862.47
2023-04-18T05:59:29.411Z,99865.88
2023-04-18T06:02:31.679Z,99869.16
2023-04-18T06:05:52.285Z,99875.22
2023-04-18T06:08:54.810Z,99873.19
2023-04-18T06:11:58.051Z,99874.81
2023-04-18T06:15:00.176Z,99878.94
2023-04-18T06:18:02.210Z,99884.03
2023-04-18T06:21:04.347Z,99882.09
2023-04-18T06:24:07.068Z,99893.44
2023-04-18T06:27:17.532Z,99888.78
2023-04-18T06:30:26.373Z,99893.87
2023-04-18T06:33:28.349Z,99890.38
2023-04-18T06:36:30.466Z,99887.53
2023-04-18T06:39:32.382Z,99893.78
2023-04-18T06:42:34.321Z,99892.63
2023-04-18T06:45:36.393Z,99893.25
2023-04-18T06:48:38.585Z,99900.34
2023-04-18T06:51:40.935Z,99904.16
2023-04-18T06:54:42.868Z,99903.00
2023-04-18T06:57:44.957Z,99901.53
2023-04-18T07:00:51.909Z,99903.22
2023-04-18T07:03:54.038Z,99898.88
2023-04-18T07:06:56.500Z,99904.81
2023-04-18T07:09:58.754Z,99901.41
2023-04-18T07:13:00.756Z,99911.97
2023-04-18T07:16:03.356Z,99912.19
2023-04-18T07:19:06.751Z,99916.22
2023-04-18T07:22:08.894Z,99918.75
2023-04-18T07:25:10.873Z,99914.97
2023-04-18T07:28:12.826Z,99922.59
2023-04-18T07:31:16.723Z,99930.13
2023-04-18T07:34:18.846Z,99928.97
2023-04-18T07:37:21.609Z,99921.56
2023-04-18T07:40:23.597Z,99919.91
2023-04-18T07:43:26.517Z,99928.25
2023-04-18T07:46:29.028Z,99924.94
2023-04-18T07:49:31.035Z,99929.41
2023-04-18T07:52:33.248Z,99937.47
2023-04-18T07:55:35.390Z,99940.63
2023-04-18T07:58:37.572Z,99934.28
2023-04-18T08:01:39.660Z,99937.69
2023-04-18T08:04:41.820Z,99939.78
2023-04-18T08:07:43.780Z,99947.87
2023-04-18T08:10:45.740Z,99947.31
2023-04-18T08:13:47.697Z,99948.72
2023-04-18T08:16:49.661Z,99952.94
2023-04-18T08:19:51.748Z,99950.38
2023-04-18T08:23:06.110Z,99947.09
2023-04-18T08:26:10.730Z,99946.16
2023-04-18T08:29:13.163Z,99956.28
2023-04-18T08:32:15.307Z,99962.84
2023-04-18T08:35:17.445Z,99963.63
2023-04-18T08:38:21.352Z,99963.81
2023-04-18T08:41:24.212Z,99970.53
2023-04-18T08:44:29.580Z,99967.25
2023-04-18T08:47:31.963Z,99973.94
2023-04-18T08:50:34.172Z,99971.69
2023-04-18T08:53:36.191Z,99977.50
2023-04-18T08:56:38.117Z,99978.91
2023-04-18T08:59:43.133Z,99987.28
2023-04-18T09:02:46.952Z,99985.78
2023-04-18T09:06:08.540Z,99996.19
2023-04-18T09:09:10.666Z,99989.19
2023-04-18T09:12:15.031Z,99989.91
2023-04-18T09:15:23.811Z,99982.28
2023-04-18T09:18:25.778Z,99992.91
2023-04-18T09:21:28.090Z,99993.63
2023-04-18T09:24:32.535Z,99994.59
2023-04-18T09:27:35.157Z,99993.09
2023-04-18T09:30:41.219Z,99999.78
2023-04-18T09:33:54.563Z,99995.63
2023-04-18T09:37:13.984Z,99996.03
2023-04-18T09:40:20.475Z,99999.81
2023-04-18T09:43:22.543Z,99992.78
2023-04-18T09:46:25.903Z,99992.25
2023-04-18T09:49:28.464Z,99988.66
2023-04-18T09:52:39.690Z,100010.00
2023-04-18T09:55:42.843Z,100006.78
2023-04-18T09:58:47.471Z,99997.34
2023-04-18T10:01:50.957Z,100015.34
2023-04-18T10:04:54.928Z,100000.63
2023-04-18T10:07:57.575Z,100005.19
2023-04-18T10:10:59.559Z,100020.97
2023-04-18T10:14:04.570Z,100013.22
2023-04-18T10:17:06.997Z,100013.75
2023-04-18T10:20:12.722Z,100016.19
2023-04-18T10:23:36.268Z,100012.06
2023-04-18T10:26:47.276Z,100014.38
2023-04-18T10:29:54.010Z,100016.09
2023-04-18T10:32:56.209Z,100016.19
2023-04-18T10:36:01.699Z,100017.97
2023-04-18T10:39:23.784Z,100020.56
2023-04-18T10:42:47.473Z,100019.19
2023-04-18T10:46:17.377Z,100008.16
2023-04-18T10:49:33.532Z,100015.03
2023-04-18T10:52:35.617Z,100013.56
2023-04-18T10:55:42.732Z,100010.06
2023-04-18T10:58:51.195Z,100007.19
2023-04-18T11:01:57.260Z,100003.59
2023-04-18T11:05:01.709Z,100000.31
2023-04-18T11:08:03.812Z,100004.66
2023-04-18T11:11:09.508Z,100000.84
2023-04-18T11:14:11.862Z,100004.00
2023-04-18T11:17:17.907Z,99997.66
2023-04-18T11:20:20.019Z,99994.56
2023-04-18T11:23:25.580Z,100004.88
2023-04-18T11:26:27.659Z,100001.06
2023-04-18T11:29:29.719Z,100003.37
2023-04-18T11:32:34.600Z,100009.09
2023-04-18T11:35:43.992Z,100004.88
2023-04-18T11:38:46.252Z,100013.69
2023-04-18T11:41:51.256Z,100013.66
2023-04-18T11:44:53.312Z,100008.88
2023-04-18T11:47:59.901Z,100005.94
2023-04-18T11:51:01.871Z,100011.22
2023-04-18T11:54:04.012Z,100008.47
2023-04-18T11:57:07.615Z,100002.09
2023-04-18T12:00:12.415Z,100006.97
2023-04-18T12:03:16.787Z,100006.78
2023-04-18T12:06:19.035Z,100009.09
2023-04-18T12:09:22.568Z,100009.41
2023-04-18T12:12:24.519Z,100004.88
2023-04-18T12:15:28.709Z,100009.78
2023-04-18T12:18:31.608Z,100008.03
2023-04-18T12:21:33.755Z,100008.81
2023-04-18T12:24:36.191Z,100005.63
2023-04-18T12:27:52.557Z,100002.75
2023-04-18T12:30:54.553Z,100005.09
2023-04-18T12:34:00.097Z,100008.25
2023-04-18T12:37:03.692Z,100013.97
2023-04-18T12:40:07.285Z,100003.78
2023-04-18T12:43:09.760Z,100005.50
2023-04-18T12:46:11.690Z,100004.53
2023-04-18T12:49:13.647Z,100006.44
2023-04-18T12:52:16.293Z,100005.50
2023-04-18T12:55:18.318Z,100004.00
2023-04-18T12:58:20.883Z,100000.91
2023-04-18T13:01:23.010Z,100006.75
2023-04-18T13:04:25.550Z,100002.19
2023-04-18T13:07:27.633Z,100002.59
2023-04-18T13:10:29.667Z,100010.00
2023-04-18T13:13:33.395Z,100001.47
2023-04-18T13:16:36.555Z,100004.06
2023-04-18T13:19:38.557Z,99999.06
2023-04-18T13:22:41.961Z,99996.97
2023-04-18T13:25:44.301Z,99992.81
2023-04-18T13:28:46.613Z,99997.81
2023-04-18T13:31:48.744Z,99998.78
2023-04-18T13:34:51.312Z,99994.47
2023-04-18T13:37:53.291Z,99996.38
2023-04-18T13:41:08.484Z,99994.94
2023-04-18T13:44:13.324Z,99998.06
2023-04-18T13:47:15.256Z,99995.06
2023-04-18T13:50:17.507Z,100000.25
2023-04-18T13:53:21.040Z,99997.50
2023-04-18T13:56:23.032Z,100003.16
2023-04-18T13:59:25.857Z,99999.31
2023-04-18T14:02:28.435Z,99994.09
2023-04-18T14:05:31.971Z,100009.66
2023-04-18T14:08:33.849Z,100012.44
2023-04-18T14:11:35.875Z,100008.22
2023-04-18T14:14:37.904Z,100010.84
2023-04-18T14:17:39.874Z,100013.78
2023-04-18T14:20:41.912Z,100013.31
2023-04-18T14:23:43.881Z,100019.81
2023-04-18T14:26:45.751Z,100004.19
2023-04-18T14:29:48.979Z,100008.06
2023-04-18T14:32:50.989Z,100008.31
2023-04-18T14:35:53.030Z,99999.19
2023-04-18T14:38:55.227Z,100000.53
2023-04-18T14:41:58.047Z,100002.34
2023-04-18T14:45:00.284Z,99995.69
2023-04-18T14:48:02.450Z,100005.34
2023-04-18T14:51:04.682Z,99998.00
2023-04-18T14:54:06.677Z,99992.31
2023-04-18T14:57:10.249Z,99996.06
2023-04-18T15:00:14.661Z,100000.91
2023-04-18T15:03:17.230Z,99989.28
2023-04-18T15:06:19.509Z,99997.03
2023-04-18T15:09:25.232Z,99995.22
2023-04-18T15:12:27.381Z,99998.75
2023-04-18T15:15:30.659Z,99999.34
2023-04-18T15:18:32.664Z,99998.75
2023-04-18T15:21:34.622Z,99997.12
2023-04-18T15:24:37.379Z,99992.81
2023-04-18T15:27:39.251Z,99998.72
2023-04-18T15:30:41.471Z,100000.56
2023-04-18T15:33:43.472Z,100002.56
2023-04-18T15:36:47.356Z,100002.94
2023-04-18T15:39:49.315Z,100000.63
2023-04-18T15:42:53.889Z,100011.22
2023-04-18T15:45:55.853Z,100012.09
2023-04-18T15:48:58.020Z,100016.06
2023-04-18T15:52:00.312Z,100014.84
2023-04-18T15:55:02.428Z,100019.41
2023-04-18T15:58:05.120Z,100030.75
2023-04-18T16:01:07.818Z,100025.94
2023-04-18T16:04:09.904Z,100029.28
2023-04-18T16:07:12.196Z,100029.38
2023-04-18T16:10:15.401Z,100022.84
2023-04-18T16:13:17.424Z,100035.53
2023-04-18T16:16:19.425Z,100037.88
2023-04-18T16:19:21.329Z,100036.19
2023-04-18T16:22:23.377Z,100039.78
2023-04-18T16:25:25.654Z,100035.44
2023-04-18T16:28:27.565Z,100037.09
2023-04-18T16:31:29.659Z,100035.28
2023-04-18T16:34:32.457Z,100045.50
2023-04-18T16:37:34.410Z,100041.13
2023-04-18T16:40:36.521Z,100016.41
2023-04-18T16:43:38.748Z,100042.06
2023-04-18T16:46:40.815Z,100038.25
2023-04-18T16:49:44.940Z,100046.78
2023-04-18T16:52:47.194Z,100038.06
2023-04-18T16:55:53.235Z,100039.12
2023-04-18T16:58:55.513Z,100036.53
2023-04-18T17:01:59.807Z,100036.87
2023-04-18T17:05:02.668Z,100046.59
2023-04-18T17:08:05.542Z,100040.78
2023-04-18T17:11:07.987Z,100047.28
2023-04-18T17:14:10.549Z,100052.81
2023-04-18T17:17:12.961Z,100044.31
2023-04-18T17:20:16.266Z,100034.13
2023-04-18T17:23:18.399Z,100051.09
2023-04-18T17:26:21.828Z,100044.53
2023-04-18T17:29:26.138Z,100049.00
2023-04-18T17:32:29.190Z,100052.81
2023-04-18T17:35:31.139Z,100055.78
2023-04-18T17:38:33.299Z,100066.59
2023-04-18T17:41:37.887Z,100056.50
2023-04-18T17:44:40.357Z,100067.31
2023-04-18T17:47:43.774Z,100064.88
2023-04-18T17:50:46.295Z,100066.03
2023-04-18T17:53:48.579Z,100072.47
2023-04-18T17:56:51.476Z,100077.03
2023-04-18T17:59:54.438Z,100073.66
2023-04-18T18:02:57.751Z,100074.06
2023-04-18T18:06:00.439Z,100079.47
2023-04-18T18:09:03.381Z,100084.34
2023-04-18T18:12:06.496Z,100074.03
2023-04-18T18:15:09.991Z,100089.62
2023-04-18T18:18:12.561Z,100083.03
2023-04-18T18:21:15.518Z,100087.47
2023-04-18T18:24:19.280Z,100096.06
2023-04-18T18:27:23.207Z,100101.28
2023-04-18T18:30:26.548Z,100103.28
2023-04-18T18:33:29.324Z,100098.72
2023-04-18T18:36:31.732Z,100107.81
2023-04-18T18:39:34.484Z,100113.12
2023-04-18T18:42:37.575Z,100115.88
2023-04-18T18:45:40.418Z,100112.16
2023-04-18T18:48:43.514Z,100116.41
2023-04-18T18:51:47.090Z,100119.06
2023-04-18T18:54:51.688Z,100119.81
2023-04-18T18:57:54.334Z,100119.91
2023-04-18T19:00:57.502Z,100126.03
2023-04-18T19:03:59.959Z,100124.91
2023-04-18T19:07:02.708Z,100121.31
2023-04-18T19:10:07.164Z,100120.47
2023-04-18T19:13:11.774Z,100128.41
2023-04-18T19:16:14.274Z,100127.66
2023-04-18T19:19:18.014Z,100125.13
2023-04-18T19:22:21.355Z,100126.91
2023-04-18T19:25:24.510Z,100121.72
2023-04-18T19:28:27.531Z,100117.56
2023-04-18T19:31:30.905Z,100123.91
2023-04-18T19:34:36.677Z,100131.97
2023-04-18T19:37:40.916Z,100123.34
2023-04-18T19:40:43.992Z,100130.78
2023-04-18T19:43:46.801Z,100131.06
2023-04-18T19:46:50.006Z,100130.41
2023-04-18T19:49:52.843Z,100130.81
2023-04-18T19:52:56.877Z,100134.41
2023-04-18T19:55:59.588Z,100132.16
2023-04-18T19:59:02.289Z,100127.91
2023-04-18T20:02:06.581Z,100131.81
2023-04-18T20:05:10.182Z,100128.59
2023-04-18T20:08:13.004Z,100129.09
2023-04-18T20:11:15.300Z,100129.31
2023-04-18T20:14:18.607Z,100139.78
2023-04-18T20:17:21.804Z,100137.12
2023-04-18T20:20:24.393Z,100133.62
2023-04-18T20:23:27.179Z,100141.66
2023-04-18T20:26:29.877Z,100142.53
2023-04-18T20:29:32.330Z,100143.25
2023-04-18T20:32:35.201Z,100140.53
2023-04-18T20:35:38.280Z,100138.81
2023-04-18T20:38:41.269Z,100135.50
2023-04-18T20:41:46.957Z,100132.13
2023-04-18T20:44:51.943Z,100140.16
2023-04-18T20:47:54.133Z,100138.53
2023-04-18T20:50:56.985Z,100131.69
2023-04-18T20:53:59.643Z,100126.47
2023-04-18T20:57:02.867Z,100137.34
2023-04-18T21:00:08.660Z,100116.38
2023-04-18T21:03:14.499Z,100123.56
2023-04-18T21:06:19.264Z,100129.03
2023-04-18T21:09:21.622Z,100125.53
2023-04-18T21:12:23.971Z,100130.91
2023-04-18T21:15:26.383Z,100127.53
2023-04-18T21:18:29.530Z,100131.03
2023-04-18T21:21:31.700Z,100127.53
2023-04-18T21:24:33.804Z,100120.44
2023-04-18T21:27:35.998Z,100120.34
2023-04-18T21:30:38.007Z,100113.28
2023-04-18T21:33:39.962Z,100111.37
2023-04-18T21:36:41.894Z,100119.41
2023-04-18T21:39:44.316Z,100120.44
2023-04-18T21:42:47.756Z,100119.03
2023-04-18T21:45:51.440Z,100115.72
2023-04-18T21:48:53.596Z,100108.81
2023-04-18T21:51:55.719Z,100108.34
2023-04-18T21:54:59.253Z,100106.75
2023-04-18T21:58:01.213Z,100105.59
2023-04-18T22:01:03.405Z,100098.88
2023-04-18T22:04:06.208Z,100096.72
2023-04-18T22:07:09.324Z,100092.56
2023-04-18T22:10:12.018Z,100088.50
2023-04-18T22:13:13.947Z,100084.34
2023-04-18T22:16:17.620Z,100083.41
2023-04-18T22:19:20.338Z,100089.81
2023-04-18T22:22:22.450Z,100075.84
2023-04-18T22:25:24.388Z,100076.12
2023-04-18T22:28:28.101Z,100085.28
2023-04-18T22:31:30.297Z,100083.84
2023-04-18T22:34:32.204Z,100088.56
2023-04-18T22:37:34.159Z,100093.44
2023-04-18T22:40:36.204Z,100097.22
2023-04-18T22:43:38.172Z,100091.25
2023-04-18T22:46:40.909Z,100091.50
2023-04-18T22:49:42.904Z,100103.09
2023-04-18T22:52:45.219Z,100101.41
2023-04-18T22:55:47.126Z,100094.44
2023-04-18T22:58:49.157Z,100092.72
2023-04-18T23:01:51.085Z,100084.72
2023-04-18T23:04:53.415Z,100082.16
2023-04-18T23:07:56.525Z,100076.88
2023-04-18T23:10:59.753Z,100080.56
2023-04-18T23:14:02.372Z,100077.81
2023-04-18T23:17:04.443Z,100074.34
2023-04-18T23:20:10.934Z,100077.66
2023-04-18T23:23:13.059Z,100081.91
2023-04-18T23:26:15.832Z,100075.41
2023-04-18T23:29:18.337Z,100079.66
2023-04-18T23:32:20.299Z,100066.19
2023-04-18T23:35:22.455Z,100069.31
2023-04-18T23:38:25.008Z,100073.38
2023-04-18T23:45:06.097Z,100077.16
2023-04-18T23:48:08.079Z,100079.69
2023-04-18T23:51:10.124Z,100074.22
2023-04-18T23:54:31.200Z,100074.03
2023-04-18T23:57:33.144Z,100072.06
